Time;durP1;ratioP1;P1;durP2;ratioP2;P2;SDS_P1;SDS_P2;PMS_P1;PMS_P2;Temp;Humidity;BMP_temperature;BMP_pressure;BME280_temperature;BME280_humidity;BME280_pressure;Samples;Min_cycle;Max_cycle;Signal;HPM_P1;HPM_P2
2022/10/30 00:01:21;;;;;;;;;21.25;18.50;;;;;15.39;85.56;99772.13;5015653;28;45476;-70
2022/10/30 00:03:47;;;;;;;;;19.50;16.00;;;;;15.27;84.70;99765.59;5015982;28;45337;-69
2022/10/30 00:06:12;;;;;;;;;15.00;14.25;;;;;15.18;85.40;99766.91;5016388;28;45314;-70
2022/10/30 00:08:37;;;;;;;;;20.00;16.25;;;;;15.11;85.76;99780.53;5016107;28;45599;-69
2022/10/30 00:11:08;;;;;;;;;15.75;14.75;;;;;15.04;85.58;99776.47;5014811;28;45543;-70
2022/10/30 00:13:34;;;;;;;;;17.00;15.00;;;;;14.98;85.89;99777.63;5015251;28;46056;-68
2022/10/30 00:16:03;;;;;;;;;18.50;16.50;;;;;14.93;85.36;99776.97;5015477;28;45478;-68
2022/10/30 00:18:29;;;;;;;;;25.00;18.25;;;;;14.88;85.17;99774.56;5012977;28;45703;-69
2022/10/30 00:20:54;;;;;;;;;17.75;15.25;;;;;14.86;86.00;99768.44;5017230;28;46060;-69
2022/10/30 00:23:20;;;;;;;;;19.00;16.75;;;;;14.83;86.64;99768.59;5017224;28;45658;-69
2022/10/30 00:25:45;;;;;;;;;20.25;17.00;;;;;14.83;86.43;99759.75;5016387;28;45445;-70
2022/10/30 00:28:11;;;;;;;;;17.25;17.25;;;;;14.82;86.98;99760.69;5016610;28;45418;-69
2022/10/30 00:30:36;;;;;;;;;20.75;17.75;;;;;14.83;86.90;99768.59;5016030;28;45477;-69
2022/10/30 00:33:02;;;;;;;;;17.50;13.75;;;;;14.82;86.81;99768.66;5016460;28;45490;-69
2022/10/30 00:35:28;;;;;;;;;20.50;19.50;;;;;14.80;86.95;99768.72;5015922;28;45383;-69
2022/10/30 00:37:54;;;;;;;;;16.00;15.25;;;;;14.80;87.07;99771.38;5015785;28;45399;-69
2022/10/30 00:40:19;;;;;;;;;21.00;18.75;;;;;14.80;86.85;99770.53;5015821;28;45304;-69
2022/10/30 00:42:45;;;;;;;;;24.75;17.75;;;;;14.80;86.89;99766.06;5015712;28;46303;-69
2022/10/30 00:45:12;;;;;;;;;16.50;14.75;;;;;14.84;86.74;99774.75;5016095;28;45354;-69
2022/10/30 00:47:45;;;;;;;;;16.50;15.50;;;;;14.83;86.28;99760.63;5017928;28;45358;-69
2022/10/30 00:50:35;;;;;;;;;16.25;15.75;;;;;14.86;87.26;99770.25;5032755;28;45410;-69
2022/10/30 00:53:10;;;;;;;;;20.00;18.50;;;;;14.86;87.50;99767.59;5002919;28;45473;-69
2022/10/30 00:55:42;;;;;;;;;21.25;16.25;;;;;14.87;87.59;99770.19;5015083;28;45479;-69
2022/10/30 00:58:13;;;;;;;;;11.75;10.75;;;;;14.88;87.46;99765.72;5016046;28;45606;-69
2022/10/30 01:00:42;;;;;;;;;17.25;16.75;;;;;14.86;87.51;99771.09;5015215;28;45590;-69
2022/10/30 01:03:08;;;;;;;;;19.25;14.00;;;;;14.85;87.75;99773.81;5016029;28;45472;-69
2022/10/30 01:05:35;;;;;;;;;19.25;16.75;;;;;14.80;88.05;99757.25;5015661;28;45365;-69
2022/10/30 01:08:00;;;;;;;;;20.75;20.00;;;;;14.77;87.86;99770.66;5015827;28;45439;-69
2022/10/30 01:10:25;;;;;;;;;18.75;17.75;;;;;14.76;88.08;99766.28;5014193;28;45544;-69
2022/10/30 01:12:53;;;;;;;;;18.25;16.00;;;;;14.75;88.20;99770.72;5015771;28;45801;-69
2022/10/30 01:15:27;;;;;;;;;20.75;16.25;;;;;14.76;88.63;99769.78;5015127;28;45490;-69
2022/10/30 01:18:35;;;;;;;;;21.00;18.50;;;;;14.76;88.02;99767.13;5015839;28;45436;-69
2022/10/30 01:21:06;;;;;;;;;18.25;15.75;;;;;14.76;88.29;99766.28;5015396;28;45306;-69
2022/10/30 01:23:58;;;;;;;;;19.50;16.75;;;;;14.76;88.22;99761.84;5015432;28;46532;-68
2022/10/30 01:26:41;;;;;;;;;16.00;14.00;;;;;14.79;88.34;99771.44;5015172;28;45441;-68
2022/10/30 01:29:45;;;;;;;;;16.75;16.25;;;;;14.78;88.72;99767.94;5015447;28;45299;-68
2022/10/30 01:32:10;;;;;;;;;21.00;15.00;;;;;14.79;88.74;99764.34;4997289;28;45597;-69
2022/10/30 01:34:45;;;;;;;;;17.25;13.00;;;;;14.80;88.57;99759.91;5014909;28;45425;-68
2022/10/30 01:37:21;;;;;;;;;20.50;20.25;;;;;14.80;88.56;99755.47;5013995;28;45393;-69
2022/10/30 01:39:46;;;;;;;;;20.00;16.50;;;;;14.80;88.46;99752.81;5015204;28;45349;-68
2022/10/30 01:42:43;;;;;;;;;23.00;19.50;;;;;14.79;88.74;99763.50;5015561;28;45349;-68
2022/10/30 01:45:16;;;;;;;;;19.75;17.25;;;;;14.79;88.50;99760.84;5014968;28;46369;-69
2022/10/30 01:48:18;;;;;;;;;19.50;17.75;;;;;14.80;88.62;99758.09;5013840;28;45501;-69
2022/10/30 01:51:12;;;;;;;;;19.75;17.75;;;;;14.81;88.67;99751.00;5015062;28;45400;-68
2022/10/30 01:54:09;;;;;;;;;20.25;20.25;;;;;14.81;88.32;99749.22;5014054;28;45903;-68
2022/10/30 01:56:49;;;;;;;;;21.25;20.00;;;;;14.80;88.41;99751.94;5015134;28;46474;-68
2022/10/30 01:59:42;;;;;;;;;22.00;17.75;;;;;14.80;88.51;99751.94;5019224;28;45514;-69
2022/10/30 02:02:08;;;;;;;;;20.75;19.50;;;;;14.80;88.36;99744.84;5019821;28;45429;-68
2022/10/30 02:04:34;;;;;;;;;18.00;17.25;;;;;14.80;88.31;99739.53;5013429;28;45382;-68
2022/10/30 02:07:00;;;;;;;;;18.00;18.00;;;;;14.80;88.10;99736.00;5014219;28;45461;-68
2022/10/30 02:09:25;;;;;;;;;17.75;16.25;;;;;14.79;88.02;99740.47;5014783;28;45553;-68
2022/10/30 02:11:52;;;;;;;;;17.75;15.50;;;;;14.78;88.08;99729.91;5014731;28;45447;-68
2022/10/30 02:14:23;;;;;;;;;18.00;17.50;;;;;14.78;88.36;99736.09;5014435;28;45342;-68
2022/10/30 02:16:51;;;;;;;;;19.00;16.25;;;;;14.77;88.25;99730.84;5014797;28;46219;-68
2022/10/30 02:19:17;;;;;;;;;22.75;21.50;;;;;14.76;88.11;99734.44;5014772;28;45289;-68
2022/10/30 02:21:43;;;;;;;;;22.00;18.25;;;;;14.76;88.04;99729.13;5014662;28;45463;-68
2022/10/30 02:24:08;;;;;;;;;16.75;15.00;;;;;14.75;88.19;99730.06;5014666;28;45413;-68
2022/10/30 02:26:34;;;;;;;;;22.25;18.25;;;;;14.74;87.96;99728.34;5014154;28;45581;-68
2022/10/30 02:28:59;;;;;;;;;18.50;14.25;;;;;14.73;87.84;99727.50;5014445;28;45473;-68
2022/10/30 02:31:24;;;;;;;;;19.50;18.75;;;;;14.73;88.45;99726.63;5014702;28;45411;-68
2022/10/30 02:33:50;;;;;;;;;21.50;19.00;;;;;14.69;88.03;99723.25;5013384;28;45757;-68
2022/10/30 02:36:15;;;;;;;;;22.75;20.50;;;;;14.67;88.34;99719.81;5014411;28;46533;-68
2022/10/30 02:38:42;;;;;;;;;24.50;19.75;;;;;14.65;88.52;99717.22;5013445;28;45410;-68
2022/10/30 02:41:07;;;;;;;;;19.75;17.50;;;;;14.63;88.69;99720.88;5014435;28;45518;-70
2022/10/30 02:43:32;;;;;;;;;16.50;15.50;;;;;14.63;88.83;99716.44;5013435;28;45548;-69
2022/10/30 02:45:58;;;;;;;;;18.25;16.25;;;;;14.61;88.58;99705.03;5014236;28;45989;-68
2022/10/30 02:48:23;;;;;;;;;21.25;18.75;;;;;14.61;88.85;99694.41;5014257;28;45338;-68
2022/10/30 02:50:49;;;;;;;;;17.50;17.00;;;;;14.62;88.73;99700.59;5013379;28;45587;-68
2022/10/30 02:53:14;;;;;;;;;14.75;14.75;;;;;14.62;88.55;99697.94;5012067;28;45630;-68
2022/10/30 02:55:39;;;;;;;;;19.75;18.00;;;;;14.62;88.55;99696.13;5013552;28;45476;-68
2022/10/30 02:58:05;;;;;;;;;19.00;15.75;;;;;14.61;88.44;99699.72;5014428;28;45440;-68
2022/10/30 03:00:30;;;;;;;;;15.25;13.50;;;;;14.60;88.09;99703.31;5014157;28;45532;-68
2022/10/30 03:02:56;;;;;;;;;16.25;13.50;;;;;14.59;88.14;99698.94;5014250;28;46193;-68
2022/10/30 03:05:21;;;;;;;;;18.75;16.00;;;;;14.60;87.89;99694.50;5014042;28;45418;-68
2022/10/30 03:07:47;;;;;;;;;18.50;17.25;;;;;14.60;88.25;99697.13;5012724;28;45353;-68
2022/10/30 03:10:13;;;;;;;;;18.75;18.50;;;;;14.59;88.08;99698.06;5014401;28;45436;-68
2022/10/30 03:12:38;;;;;;;;;19.00;16.25;;;;;14.59;88.28;99706.91;5013769;28;45404;-68
2022/10/30 03:15:04;;;;;;;;;14.50;14.50;;;;;14.57;88.19;99711.44;5016352;28;46617;-68
2022/10/30 03:17:29;;;;;;;;;20.75;17.00;;;;;14.54;88.25;99716.03;5016285;28;45536;-68
2022/10/30 03:19:55;;;;;;;;;21.50;19.50;;;;;14.46;87.47;99710.19;5017652;28;45304;-68
2022/10/30 03:22:20;;;;;;;;;17.75;16.75;;;;;14.35;88.38;99718.63;5017225;28;45484;-68
2022/10/30 03:24:46;;;;;;;;;16.75;16.25;;;;;14.25;89.12;99715.53;5017213;28;45607;-68
2022/10/30 03:27:11;;;;;;;;;17.75;15.75;;;;;14.16;88.92;99717.75;5017064;28;45349;-68
2022/10/30 03:29:36;;;;;;;;;16.25;15.00;;;;;14.07;88.66;99721.69;5016683;28;45513;-68
2022/10/30 03:32:02;;;;;;;;;16.75;14.00;;;;;14.04;88.26;99720.94;5017589;28;45327;-68
2022/10/30 03:34:27;;;;;;;;;14.75;14.00;;;;;13.97;88.36;99720.34;5017013;28;45478;-68
2022/10/30 03:36:53;;;;;;;;;19.25;17.25;;;;;13.91;87.91;99718.81;5017042;28;45302;-68
2022/10/30 03:39:18;;;;;;;;;17.00;14.75;;;;;13.88;88.06;99720.78;5017332;28;45346;-68
2022/10/30 03:41:43;;;;;;;;;13.75;13.50;;;;;13.85;88.34;99716.47;5017076;28;45390;-68
2022/10/30 03:44:09;;;;;;;;;15.25;14.25;;;;;13.87;88.65;99721.69;5016516;28;46146;-69
2022/10/30 03:46:34;;;;;;;;;12.50;10.50;;;;;13.88;88.85;99720.78;5017165;28;45418;-68
2022/10/30 03:49:00;;;;;;;;;19.50;16.75;;;;;13.89;88.15;99719.84;5017104;28;45539;-68
2022/10/30 03:51:25;;;;;;;;;18.00;16.50;;;;;13.91;88.41;99720.59;5017071;28;45576;-68
2022/10/30 03:53:51;;;;;;;;;12.50;12.50;;;;;13.94;88.69;99725.78;5016971;28;46131;-69
2022/10/30 03:56:16;;;;;;;;;17.50;14.50;;;;;13.95;89.23;99716.91;5016997;28;45461;-68
2022/10/30 03:58:41;;;;;;;;;11.25;11.25;;;;;13.95;89.58;99728.38;5016691;28;45430;-68
2022/10/30 04:01:08;;;;;;;;;18.50;15.25;;;;;13.97;89.73;99734.47;5003936;28;45506;-69
2022/10/30 04:03:34;;;;;;;;;14.00;13.00;;;;;13.97;90.19;99734.47;5016489;28;45428;-68
2022/10/30 04:05:59;;;;;;;;;16.75;15.00;;;;;13.99;89.93;99729.09;5016698;28;45343;-69
2022/10/30 04:08:25;;;;;;;;;17.00;16.00;;;;;13.99;90.61;99729.09;5016751;28;45393;-69
2022/10/30 04:10:50;;;;;;;;;19.75;14.50;;;;;14.01;90.30;99731.69;5015460;28;45477;-69
2022/10/30 04:13:16;;;;;;;;;22.50;19.25;;;;;14.02;90.35;99730.75;5016432;28;46396;-68
2022/10/30 04:15:42;;;;;;;;;25.00;18.25;;;;;14.03;90.24;99729.84;5016139;28;45369;-69
2022/10/30 04:18:11;;;;;;;;;18.50;16.75;;;;;14.04;90.16;99734.22;5016743;28;45382;-69
2022/10/30 04:20:37;;;;;;;;;18.50;15.75;;;;;14.05;90.39;99728.84;5015018;28;45543;-68
2022/10/30 04:23:05;;;;;;;;;12.25;11.75;;;;;14.07;90.05;99739.38;5016143;28;46629;-68
2022/10/30 04:25:32;;;;;;;;;17.00;16.00;;;;;14.07;90.29;99736.72;5016892;28;45342;-68
2022/10/30 04:27:58;;;;;;;;;19.75;17.50;;;;;14.07;90.26;99737.59;5016190;28;45318;-68
2022/10/30 04:30:32;;;;;;;;;19.75;18.50;;;;;14.07;90.36;99744.69;5015942;28;45283;-69
2022/10/30 04:32:58;;;;;;;;;21.75;18.00;;;;;14.07;90.17;99736.72;5016592;28;45421;-68
2022/10/30 04:35:28;;;;;;;;;19.50;18.25;;;;;14.07;90.10;99734.06;5015059;28;45292;-68
2022/10/30 04:38:00;;;;;;;;;16.50;15.00;;;;;14.06;90.18;99735.00;5016416;28;45548;-68
2022/10/30 04:40:28;;;;;;;;;24.25;16.75;;;;;14.05;90.46;99744.75;5016271;28;45683;-68
2022/10/30 04:42:54;;;;;;;;;23.25;20.25;;;;;14.04;89.74;99736.84;5016063;28;45618;-68
2022/10/30 04:45:20;;;;;;;;;19.75;16.25;;;;;14.04;89.92;99743.03;5016011;28;45452;-68
2022/10/30 04:47:46;;;;;;;;;16.25;14.25;;;;;14.04;89.88;99737.72;5015603;28;45373;-68
2022/10/30 04:50:12;;;;;;;;;17.00;15.00;;;;;14.04;90.07;99737.72;5016667;28;45456;-68
2022/10/30 04:52:38;;;;;;;;;19.00;17.00;;;;;14.04;90.04;99732.41;5015555;28;45395;-68
2022/10/30 04:55:05;;;;;;;;;15.50;14.00;;;;;14.05;89.65;99730.63;5016127;28;45437;-68
2022/10/30 04:57:30;;;;;;;;;19.00;17.75;;;;;14.03;89.82;99727.19;5015642;28;45427;-68
2022/10/30 04:59:57;;;;;;;;;20.00;15.75;;;;;14.03;89.98;99724.53;5015291;28;45420;-68
2022/10/30 05:02:22;;;;;;;;;20.75;17.25;;;;;14.04;89.75;99731.56;5015613;28;45493;-68
2022/10/30 05:04:47;;;;;;;;;19.50;17.75;;;;;14.02;90.02;99726.31;5015865;28;45378;-68
2022/10/30 05:07:14;;;;;;;;;17.00;17.00;;;;;14.01;90.09;99724.59;5015875;28;45373;-68
2022/10/30 05:09:39;;;;;;;;;18.75;16.75;;;;;14.02;89.91;99725.47;5014481;28;45289;-68
2022/10/30 05:12:05;;;;;;;;;21.00;19.00;;;;;13.97;90.03;99721.22;5015272;28;45394;-68
2022/10/30 05:14:32;;;;;;;;;19.75;15.25;;;;;13.98;90.37;99716.78;5015516;28;45348;-68
2022/10/30 05:16:58;;;;;;;;;18.00;18.00;;;;;13.98;90.24;99722.06;5015786;28;45384;-70
2022/10/30 05:19:24;;;;;;;;;19.25;18.75;;;;;13.97;90.18;99730.94;5015619;28;45571;-69
2022/10/30 05:21:49;;;;;;;;;23.00;18.00;;;;;13.96;90.40;99721.28;5015098;28;46060;-70
2022/10/30 05:24:15;;;;;;;;;18.75;17.50;;;;;13.94;90.13;99717.81;5015598;28;45231;-69
2022/10/30 05:26:40;;;;;;;;;22.25;15.75;;;;;13.93;90.39;99726.72;5015410;28;45936;-70
2022/10/30 05:29:06;;;;;;;;;21.50;19.00;;;;;13.93;90.64;99721.41;5014951;28;45446;-70
2022/10/30 05:31:31;;;;;;;;;19.33;17.67;;;;;13.91;90.44;99717.97;5015515;28;45411;-70
2022/10/30 05:33:57;;;;;;;;;19.75;17.00;;;;;13.92;90.76;99719.69;5015534;28;45350;-70
2022/10/30 05:36:22;;;;;;;;;21.75;19.00;;;;;13.91;90.64;99726.78;5014849;28;45485;-70
2022/10/30 05:38:48;;;;;;;;;18.25;17.25;;;;;13.90;90.44;99724.22;5015495;28;45423;-69
2022/10/30 05:41:13;;;;;;;;;15.00;14.75;;;;;13.91;90.84;99725.91;5014977;28;45982;-69
2022/10/30 05:43:38;;;;;;;;;19.50;15.75;;;;;13.92;91.03;99722.34;5013801;28;45429;-69
2022/10/30 05:46:04;;;;;;;;;19.25;19.25;;;;;13.92;90.71;99717.91;5015144;28;46082;-69
2022/10/30 05:48:29;;;;;;;;;20.75;18.00;;;;;13.92;90.68;99719.69;5015113;28;45473;-69
2022/10/30 05:50:55;;;;;;;;;19.50;18.75;;;;;13.90;90.73;99719.78;5014896;28;46194;-69
2022/10/30 05:53:21;;;;;;;;;20.25;19.00;;;;;13.89;90.76;99712.75;5015186;28;45382;-69
2022/10/30 05:55:47;;;;;;;;;27.75;22.75;;;;;13.89;90.20;99715.41;5015303;28;45398;-69
2022/10/30 05:58:12;;;;;;;;;22.50;19.50;;;;;13.89;90.31;99714.53;5015143;28;45492;-69
2022/10/30 06:00:39;;;;;;;;;21.00;20.00;;;;;13.89;90.17;99711.88;5014386;28;45286;-69
2022/10/30 06:03:06;;;;;;;;;19.50;17.75;;;;;13.88;90.06;99716.34;5014831;28;45239;-70
2022/10/30 06:05:34;;;;;;;;;15.75;14.75;;;;;13.87;90.26;99721.69;5014853;28;45766;-69
2022/10/30 06:08:01;;;;;;;;;22.00;20.75;;;;;13.87;90.16;99713.75;5014928;28;45470;-70
2022/10/30 06:10:27;;;;;;;;;21.75;19.00;;;;;13.86;90.28;99719.97;5014452;28;46748;-69
2022/10/30 06:13:00;;;;;;;;;19.75;17.75;;;;;13.85;90.30;99719.13;5013399;28;45870;-69
2022/10/30 06:15:26;;;;;;;;;20.50;17.00;;;;;13.84;90.14;99709.44;5014445;28;45448;-70
2022/10/30 06:17:52;;;;;;;;;29.67;24.67;;;;;13.84;90.37;99716.53;5014889;28;45412;-69
2022/10/30 06:20:19;;;;;;;;;35.00;31.33;;;;;13.83;90.63;99720.09;5014753;28;45430;-69
2022/10/30 06:22:59;;;;;;;;;55.67;45.00;;;;;13.81;90.70;99714.88;5014544;28;45389;-69
2022/10/30 06:25:26;;;;;;;;;56.33;44.33;;;;;13.81;90.62;99717.50;5014237;28;45366;-69
2022/10/30 06:27:51;;;;;;;;;52.00;41.67;;;;;13.82;90.40;99719.25;5014476;28;45269;-69
2022/10/30 06:30:17;;;;;;;;;52.00;41.33;;;;;13.83;90.70;99717.44;5013705;28;45468;-70
2022/10/30 06:32:42;;;;;;;;;46.00;38.33;;;;;13.82;90.75;99713.94;5014565;28;45389;-69
2022/10/30 06:35:08;;;;;;;;;41.67;36.00;;;;;13.83;90.78;99728.06;5013977;28;45292;-70
2022/10/30 06:37:34;;;;;;;;;32.33;30.67;;;;;13.82;90.81;99713.94;5014739;28;45378;-69
2022/10/30 06:40:00;;;;;;;;;32.67;30.33;;;;;13.82;90.54;99724.53;5014539;28;46292;-69
2022/10/30 06:42:25;;;;;;;;;30.67;28.33;;;;;13.83;90.45;99720.09;5014462;28;45650;-69
2022/10/30 06:44:51;;;;;;;;;30.67;30.00;;;;;13.85;90.29;99720.91;5014051;28;45406;-69
2022/10/30 06:47:16;;;;;;;;;31.00;30.00;;;;;13.84;90.39;99724.47;5013117;28;45409;-69
2022/10/30 06:49:42;;;;;;;;;35.00;31.67;;;;;13.83;90.44;99725.41;5016535;28;45362;-69
2022/10/30 06:52:07;;;;;;;;;42.67;32.67;;;;;13.82;90.38;99719.25;5025317;28;45354;-69
2022/10/30 06:54:33;;;;;;;;;31.33;27.33;;;;;13.83;89.97;99720.97;5017883;28;45609;-69
2022/10/30 06:56:59;;;;;;;;;28.67;26.67;;;;;13.83;90.30;99720.09;5017920;28;45437;-69
2022/10/30 06:59:24;;;;;;;;;31.00;26.33;;;;;13.86;90.16;99725.28;5017268;28;46103;-69
2022/10/30 07:01:50;;;;;;;;;24.75;23.25;;;;;13.87;89.88;99727.84;5017823;28;45425;-70
2022/10/30 07:04:15;;;;;;;;;28.75;24.50;;;;;13.89;90.14;99728.66;5017868;28;45366;-69
2022/10/30 07:06:40;;;;;;;;;26.75;19.75;;;;;13.91;89.80;99728.56;5017575;28;45483;-69
2022/10/30 07:09:06;;;;;;;;;28.50;22.25;;;;;13.91;89.92;99729.41;5017320;28;45474;-69
2022/10/30 07:11:31;;;;;;;;;21.00;19.25;;;;;13.92;89.56;99735.59;5017554;28;45335;-69
2022/10/30 07:13:57;;;;;;;;;20.00;18.50;;;;;13.92;89.55;99728.50;5017133;28;45543;-70
2022/10/30 07:16:22;;;;;;;;;20.50;20.50;;;;;13.95;89.68;99738.97;5017413;28;45258;-69
2022/10/30 07:18:48;;;;;;;;;25.25;24.00;;;;;13.97;89.70;99734.47;5017215;28;45353;-69
2022/10/30 07:21:13;;;;;;;;;25.50;24.00;;;;;14.01;89.47;99735.19;5017110;28;45397;-70
2022/10/30 07:23:38;;;;;;;;;24.75;20.50;;;;;14.01;88.97;99740.50;5017462;28;45523;-69
2022/10/30 07:26:04;;;;;;;;;26.25;23.75;;;;;14.00;89.37;99733.47;5017374;28;45243;-69
2022/10/30 07:28:30;;;;;;;;;20.75;18.00;;;;;14.00;89.03;99741.44;5016402;28;45303;-70
2022/10/30 07:30:57;;;;;;;;;20.50;19.75;;;;;14.00;89.16;99746.72;5017700;28;45235;-69
2022/10/30 07:33:22;;;;;;;;;14.75;14.75;;;;;14.01;88.87;99751.09;5017286;28;45465;-70
2022/10/30 07:35:48;;;;;;;;;15.00;13.00;;;;;14.01;88.41;99751.09;5020745;28;45757;-70
2022/10/30 07:38:13;;;;;;;;;23.00;19.00;;;;;13.98;89.06;99751.22;5016793;28;45446;-70
2022/10/30 07:40:39;;;;;;;;;26.50;22.00;;;;;13.97;89.64;99747.72;5016724;28;45330;-70
2022/10/30 07:43:05;;;;;;;;;16.50;16.50;;;;;13.99;89.05;99752.97;5017216;28;45433;-70
2022/10/30 07:45:31;;;;;;;;;18.00;13.75;;;;;14.00;88.62;99757.34;5015469;28;45389;-70
2022/10/30 07:47:56;;;;;;;;;20.25;15.00;;;;;13.98;88.73;99762.69;5016671;28;45677;-70
2022/10/30 07:50:22;;;;;;;;;20.00;17.00;;;;;13.98;88.94;99767.13;5017018;28;45318;-70
2022/10/30 07:52:47;;;;;;;;;21.75;20.75;;;;;13.96;88.56;99763.69;5016732;28;45396;-70
2022/10/30 07:55:13;;;;;;;;;26.25;21.75;;;;;13.93;89.29;99769.13;5016797;28;45605;-70
2022/10/30 07:57:40;;;;;;;;;24.00;22.67;;;;;13.94;89.75;99777.00;5031721;28;48089;-70
2022/10/30 08:00:09;;;;;;;;;27.67;26.00;;;;;13.95;90.16;99775.22;5015676;28;45445;-70
2022/10/30 08:02:35;;;;;;;;;28.00;25.33;;;;;13.92;89.87;99778.00;5016465;28;45454;-70
2022/10/30 08:05:01;;;;;;;;;23.33;22.00;;;;;13.89;90.86;99778.16;5016106;28;45366;-70
2022/10/30 08:07:35;;;;;;;;;23.00;22.67;;;;;13.85;90.76;99773.91;5016290;28;45498;-70
2022/10/30 08:10:01;;;;;;;;;21.33;21.33;;;;;13.84;91.14;99777.47;5016661;28;45468;-70
2022/10/30 08:12:26;;;;;;;;;26.00;24.00;;;;;13.88;90.71;99773.78;5015971;28;45180;-70
2022/10/30 08:14:52;;;;;;;;;15.67;14.33;;;;;13.92;91.12;99775.34;5014644;28;45396;-70
2022/10/30 08:17:18;;;;;;;;;27.00;23.00;;;;;13.95;90.99;99775.22;5016294;28;45311;-71
2022/10/30 08:19:44;;;;;;;;;22.67;21.67;;;;;13.99;90.83;99774.16;5016106;28;45239;-69
2022/10/30 08:22:10;;;;;;;;;31.33;26.00;;;;;14.05;90.87;99775.69;5015345;28;45367;-68
2022/10/30 08:24:35;;;;;;;;;22.00;21.00;;;;;14.05;90.52;99776.56;5016767;28;45487;-68
2022/10/30 08:27:01;;;;;;;;;23.00;20.75;;;;;14.07;90.73;99773.84;5016063;28;46342;-69
2022/10/30 08:29:27;;;;;;;;;21.75;20.00;;;;;14.11;90.64;99778.06;5014052;28;45575;-69
2022/10/30 08:31:52;;;;;;;;;20.75;20.75;;;;;14.14;90.60;99768.19;5032012;28;45516;-68
2022/10/30 08:34:18;;;;;;;;;27.33;24.33;;;;;14.19;90.42;99775.94;5011253;28;45559;-69
2022/10/30 08:36:43;;;;;;;;;25.00;23.00;;;;;14.20;90.05;99781.19;5013009;28;47232;-69
2022/10/30 08:39:08;;;;;;;;;25.00;23.00;;;;;14.25;90.25;99775.66;5014805;28;45440;-69
2022/10/30 08:41:34;;;;;;;;;23.00;21.25;;;;;14.28;89.98;99771.09;5019156;28;45523;-69
2022/10/30 08:43:59;;;;;;;;;33.00;25.67;;;;;14.33;90.03;99776.19;5022880;28;45437;-72
2022/10/30 08:46:25;;;;;;;;;32.25;24.75;;;;;14.42;89.88;99773.13;5027002;28;45444;-52
2022/10/30 08:48:50;;;;;;;;;26.25;22.75;;;;;14.60;90.21;99774.09;5015102;28;45429;-65
2022/10/30 08:51:16;;;;;;;;;23.00;22.00;;;;;14.83;89.31;99779.22;5015365;28;45366;-62
2022/10/30 08:53:41;;;;;;;;;24.00;22.00;;;;;14.96;88.10;99769.72;5022332;28;45462;-72
2022/10/30 08:56:07;;;;;;;;;27.00;24.50;;;;;15.02;87.46;99771.25;5022460;28;45428;-71
2022/10/30 08:58:32;;;;;;;;;24.25;21.75;;;;;15.05;87.48;99771.09;5026743;28;45504;-71
2022/10/30 09:00:57;;;;;;;;;23.75;19.75;;;;;15.08;87.52;99768.25;5020032;28;45282;-71
2022/10/30 09:03:23;;;;;;;;;25.25;22.00;;;;;15.13;87.08;99768.91;5014805;28;45542;-72
2022/10/30 09:05:49;;;;;;;;;23.75;21.50;;;;;15.18;86.77;99764.25;5014498;28;45557;-72
2022/10/30 09:08:14;;;;;;;;;18.25;17.75;;;;;15.23;87.18;99770.22;5015398;28;45366;-72
2022/10/30 09:10:39;;;;;;;;;20.25;18.75;;;;;15.29;86.01;99763.72;5026099;28;46046;-72
2022/10/30 09:13:05;;;;;;;;;20.75;19.50;;;;;15.34;85.97;99773.19;5020366;28;45421;-72
2022/10/30 09:15:30;;;;;;;;;24.75;21.50;;;;;15.39;85.53;99766.78;5028082;28;46140;-72
2022/10/30 09:18:01;;;;;;;;;22.25;21.25;;;;;15.43;86.31;99771.00;5024949;28;45325;-71
2022/10/30 09:20:27;;;;;;;;;29.33;27.33;;;;;15.47;86.18;99762.81;5019442;28;45518;-72
2022/10/30 09:22:53;;;;;;;;;23.75;23.00;;;;;15.52;85.70;99762.59;5016993;28;45318;-72
2022/10/30 09:25:19;;;;;;;;;28.00;21.50;;;;;15.58;86.13;99759.66;5002969;28;46153;-71
2022/10/30 09:27:44;;;;;;;;;21.00;19.00;;;;;15.65;86.19;99761.06;5014869;28;45298;-71
2022/10/30 09:30:11;;;;;;;;;25.00;20.50;;;;;15.73;85.69;99750.91;5012875;28;45391;-72
2022/10/30 09:32:36;;;;;;;;;24.25;20.75;;;;;15.79;85.01;99745.25;5017229;28;45529;-69
2022/10/30 09:35:01;;;;;;;;;23.25;21.75;;;;;15.88;84.85;99749.25;5029322;28;45438;-72
2022/10/30 09:37:27;;;;;;;;;25.25;22.25;;;;;15.92;84.52;99750.84;5014632;28;45387;-72
2022/10/30 09:39:52;;;;;;;;;25.00;21.25;;;;;15.96;84.29;99752.38;5014325;28;45717;-72
2022/10/30 09:42:23;;;;;;;;;19.00;15.50;;;;;15.98;84.13;99751.34;5014253;28;45524;-72
2022/10/30 09:44:57;;;;;;;;;20.50;19.00;;;;;16.04;83.82;99752.84;5013389;28;46290;-72
2022/10/30 09:47:44;;;;;;;;;27.25;21.50;;;;;16.10;83.85;99751.63;5013978;28;45354;-72
2022/10/30 09:50:10;;;;;;;;;25.75;21.50;;;;;16.16;83.14;99741.53;5012688;28;45342;-72
2022/10/30 09:52:50;;;;;;;;;20.00;16.00;;;;;16.21;81.92;99743.97;5013912;28;45466;-72
2022/10/30 09:55:36;;;;;;;;;19.00;17.75;;;;;16.28;82.17;99740.03;5022219;28;46534;-72
2022/10/30 09:58:28;;;;;;;;;22.75;20.75;;;;;16.38;82.77;99751.91;5001456;28;45469;-71
2022/10/30 10:01:03;;;;;;;;;23.00;18.75;;;;;16.48;81.80;99749.59;5012221;28;45468;-71
2022/10/30 10:03:47;;;;;;;;;16.75;16.00;;;;;16.52;80.91;99745.84;5009183;28;45413;-70
2022/10/30 10:06:18;;;;;;;;;21.00;19.75;;;;;16.55;80.73;99751.00;5004670;28;45461;-71
2022/10/30 10:09:00;;;;;;;;;19.25;19.00;;;;;16.57;80.70;99742.00;5013677;28;45334;-70
2022/10/30 10:11:34;;;;;;;;;19.75;17.50;;;;;16.63;80.01;99743.47;5014270;28;45376;-71
2022/10/30 10:14:20;;;;;;;;;19.50;19.25;;;;;16.67;79.65;99745.03;5028369;28;45399;-71
2022/10/30 10:16:54;;;;;;;;;18.75;17.50;;;;;16.72;79.89;99737.66;5013828;28;46668;-71
2022/10/30 10:19:43;;;;;;;;;18.75;15.50;;;;;16.80;78.95;99748.72;5013474;28;45445;-68
2022/10/30 10:22:25;;;;;;;;;15.00;13.25;;;;;16.86;78.25;99742.22;5012648;28;45252;-67
2022/10/30 10:24:53;;;;;;;;;17.00;15.25;;;;;16.91;77.54;99737.50;5013500;28;45369;-68
2022/10/30 10:27:44;;;;;;;;;12.50;10.50;;;;;16.96;77.93;99743.41;5009684;28;46442;-68
2022/10/30 10:30:21;;;;;;;;;18.00;15.25;;;;;17.02;78.13;99738.59;5011001;28;45433;-69
2022/10/30 10:33:11;;;;;;;;;18.25;16.50;;;;;17.11;77.51;99729.22;5017407;28;45386;-68
2022/10/30 10:35:52;;;;;;;;;20.00;18.50;;;;;17.17;77.80;99725.34;5016373;28;45323;-68
2022/10/30 10:38:55;;;;;;;;;19.25;17.25;;;;;17.21;77.42;99735.75;5013511;28;46520;-69
2022/10/30 10:41:45;;;;;;;;;19.00;18.50;;;;;17.25;77.27;99725.78;5012619;28;45354;-67
2022/10/30 10:44:48;;;;;;;;;17.50;16.25;;;;;17.30;77.28;99729.03;5013413;28;45397;-68
2022/10/30 10:47:45;;;;;;;;;19.50;16.25;;;;;17.36;77.23;99723.34;5013190;28;45610;-67
2022/10/30 10:50:35;;;;;;;;;13.25;13.25;;;;;17.41;76.87;99719.47;5018267;28;45402;-68
2022/10/30 10:53:18;;;;;;;;;16.50;16.00;;;;;17.45;77.09;99718.31;5030584;28;45617;-67
2022/10/30 10:55:48;;;;;;;;;23.75;18.25;;;;;17.47;76.91;99710.22;5010541;28;45468;-67
2022/10/30 10:58:29;;;;;;;;;21.25;18.25;;;;;17.52;76.43;99708.16;5013324;28;45422;-67
2022/10/30 11:00:57;;;;;;;;;17.50;14.75;;;;;17.54;76.06;99708.06;5011937;28;46427;-67
2022/10/30 11:03:57;;;;;;;;;18.50;16.75;;;;;17.56;76.30;99711.50;5012592;28;45397;-67
2022/10/30 11:06:28;;;;;;;;;15.00;14.50;;;;;17.57;76.13;99707.91;5013169;28;45408;-67
2022/10/30 11:09:15;;;;;;;;;19.00;15.75;;;;;17.61;75.17;99710.28;5013055;28;45303;-67
2022/10/30 11:11:43;;;;;;;;;17.25;14.25;;;;;17.65;74.91;99709.19;5013519;28;45674;-67
2022/10/30 11:14:14;;;;;;;;;19.25;17.00;;;;;17.69;75.32;99701.88;5012528;28;45500;-67
2022/10/30 11:17:01;;;;;;;;;15.75;12.50;;;;;17.76;75.24;99704.06;5011301;28;45466;-67
2022/10/30 11:19:29;;;;;;;;;10.50;10.50;;;;;17.81;74.48;99697.59;5011608;28;45483;-67
2022/10/30 11:21:57;;;;;;;;;17.00;13.00;;;;;17.85;73.95;99694.66;5012902;28;45572;-67
2022/10/30 11:24:29;;;;;;;;;14.50;12.25;;;;;17.93;74.08;99702.19;5012438;28;45425;-67
2022/10/30 11:26:57;;;;;;;;;16.00;14.25;;;;;17.99;73.45;99693.81;5012274;28;45428;-68